createdAt,value
2023-05-19T00:00:03.447Z,4.20
2023-05-19T00:01:03.467Z,4.20
2023-05-19T00:02:03.083Z,4.20
2023-05-19T00:03:03.077Z,4.20
2023-05-19T00:04:03.115Z,5.30
2023-05-19T00:05:03.090Z,5.30
2023-05-19T00:06:02.751Z,5.30
2023-05-19T00:07:02.959Z,5.30
2023-05-19T00:08:03.079Z,5.30
2023-05-19T00:09:02.763Z,5.40
2023-05-19T00:10:02.787Z,5.40
2023-05-19T00:11:02.828Z,5.40
2023-05-19T00:12:02.799Z,5.40
2023-05-19T00:13:02.715Z,5.40
2023-05-19T00:14:02.562Z,5.40
2023-05-19T00:15:02.949Z,5.40
2023-05-19T00:16:02.858Z,5.40
2023-05-19T00:17:02.997Z,5.40
2023-05-19T00:18:03.024Z,5.40
2023-05-19T00:19:03.089Z,4.80
2023-05-19T00:20:02.725Z,4.80
2023-05-19T00:21:02.669Z,4.80
2023-05-19T00:22:02.839Z,4.80
2023-05-19T00:23:02.630Z,4.80
2023-05-19T00:24:02.603Z,4.10
2023-05-19T00:25:02.917Z,4.10
2023-05-19T00:26:03.457Z,4.10
2023-05-19T00:27:03.490Z,4.10
2023-05-19T00:28:03.065Z,4.10
2023-05-19T00:29:03.441Z,3.90
2023-05-19T00:30:02.794Z,3.90
2023-05-19T00:31:02.534Z,3.90
2023-05-19T00:32:02.719Z,3.90
2023-05-19T00:33:02.694Z,3.90
2023-05-19T00:34:02.605Z,3.60
2023-05-19T00:35:02.965Z,3.60
2023-05-19T00:36:03.177Z,3.60
2023-05-19T00:37:03.159Z,3.60
2023-05-19T00:38:03.396Z,3.60
2023-05-19T00:39:03.080Z,3.50
2023-05-19T00:40:03.624Z,3.50
2023-05-19T00:41:03.017Z,3.50
2023-05-19T00:42:03.390Z,3.50
2023-05-19T00:43:03.252Z,3.50
2023-05-19T00:44:03.119Z,3.60
2023-05-19T00:45:02.794Z,3.60
2023-05-19T00:46:02.686Z,3.60
2023-05-19T00:47:02.803Z,3.60
2023-05-19T00:48:02.740Z,3.60
2023-05-19T00:49:02.563Z,3.90
2023-05-19T00:50:03.060Z,3.90
2023-05-19T00:51:02.997Z,3.90
2023-05-19T00:52:02.889Z,3.90
2023-05-19T00:53:03.216Z,3.90
2023-05-19T00:54:03.179Z,3.70
2023-05-19T00:55:02.773Z,3.70
2023-05-19T00:56:02.612Z,3.70
2023-05-19T00:57:02.547Z,3.70
2023-05-19T00:58:02.480Z,3.70
2023-05-19T00:59:02.889Z,4.10
2023-05-19T01:00:02.692Z,4.10
2023-05-19T01:01:02.792Z,4.10
2023-05-19T01:02:03.193Z,4.10
2023-05-19T01:03:03.072Z,4.10
2023-05-19T01:04:02.820Z,3.90
2023-05-19T01:05:02.597Z,3.90
2023-05-19T01:06:02.365Z,3.90
2023-05-19T01:07:02.250Z,3.90
2023-05-19T01:08:02.225Z,3.90
2023-05-19T01:09:02.307Z,3.90
2023-05-19T01:10:02.969Z,3.90
2023-05-19T01:11:02.544Z,3.90
2023-05-19T01:12:02.428Z,3.90
2023-05-19T01:13:02.974Z,3.90
2023-05-19T01:14:02.495Z,3.70
2023-05-19T01:15:02.376Z,3.70
2023-05-19T01:16:02.465Z,3.70
2023-05-19T01:17:02.309Z,3.70
2023-05-19T01:18:01.843Z,3.70
2023-05-19T01:19:02.095Z,3.60
2023-05-19T01:20:02.614Z,3.60
2023-05-19T01:21:02.166Z,3.60
2023-05-19T01:22:02.604Z,3.60
2023-05-19T01:23:02.454Z,3.60
2023-05-19T01:24:02.807Z,3.90
2023-05-19T01:25:02.161Z,3.90
2023-05-19T01:26:01.581Z,3.90
2023-05-19T01:27:02.134Z,3.90
2023-05-19T01:28:01.554Z,3.90
2023-05-19T01:29:01.663Z,3.90
2023-05-19T01:30:01.994Z,3.90
2023-05-19T01:31:01.912Z,3.90
2023-05-19T01:32:02.243Z,3.90
2023-05-19T01:33:02.060Z,3.90
2023-05-19T01:34:01.552Z,3.40
2023-05-19T01:35:02.469Z,3.40
2023-05-19T01:36:02.323Z,3.40
2023-05-19T01:37:02.125Z,3.40
2023-05-19T01:38:02.347Z,3.40
2023-05-19T01:39:02.516Z,3.80
2023-05-19T01:40:01.985Z,3.80
2023-05-19T01:41:01.583Z,3.80
2023-05-19T01:42:02.024Z,3.80
2023-05-19T01:43:01.467Z,3.80
2023-05-19T01:44:02.030Z,3.70
2023-05-19T01:45:01.886Z,3.70
2023-05-19T01:46:01.882Z,3.70
2023-05-19T01:47:02.427Z,3.70
2023-05-19T01:48:02.165Z,3.70
2023-05-19T01:49:02.275Z,3.30
2023-05-19T01:50:02.125Z,3.30
2023-05-19T01:51:02.670Z,3.30
2023-05-19T01:52:02.240Z,3.30
2023-05-19T01:53:02.121Z,3.30
2023-05-19T01:54:02.578Z,3.60
2023-05-19T01:55:01.771Z,3.60
2023-05-19T01:56:01.650Z,3.60
2023-05-19T01:57:02.077Z,3.60
2023-05-19T01:58:01.974Z,3.60
2023-05-19T01:59:01.699Z,4.10
2023-05-19T02:00:02.693Z,4.10
2023-05-19T02:01:02.382Z,4.10
2023-05-19T02:02:02.363Z,4.10
2023-05-19T02:03:02.295Z,4.10
2023-05-19T02:04:02.282Z,3.80
2023-05-19T02:05:02.368Z,3.80
2023-05-19T02:06:02.536Z,3.80
2023-05-19T02:07:02.359Z,3.80
2023-05-19T02:08:02.394Z,3.80
2023-05-19T02:09:02.248Z,3.90
2023-05-19T02:10:02.341Z,3.90
2023-05-19T02:11:02.924Z,3.90
2023-05-19T02:12:02.404Z,3.90
2023-05-19T02:13:02.340Z,3.90
2023-05-19T02:14:02.925Z,4.00
2023-05-19T02:15:03.068Z,4.00
2023-05-19T02:16:02.658Z,4.00
2023-05-19T02:17:02.727Z,4.00
2023-05-19T02:18:02.618Z,4.00
2023-05-19T02:19:02.553Z,3.60
2023-05-19T02:20:02.354Z,3.60
2023-05-19T02:21:02.205Z,3.60
2023-05-19T02:22:02.705Z,3.60
2023-05-19T02:23:02.229Z,3.60
2023-05-19T02:24:02.215Z,3.60
2023-05-19T02:25:01.869Z,3.60
2023-05-19T02:26:02.251Z,3.60
2023-05-19T02:27:01.712Z,3.60
2023-05-19T02:28:02.121Z,3.60
2023-05-19T02:29:01.993Z,3.80
2023-05-19T02:30:01.828Z,3.80
2023-05-19T02:31:02.018Z,3.80
2023-05-19T02:32:02.346Z,3.80
2023-05-19T02:33:01.808Z,3.80
2023-05-19T02:34:02.194Z,3.50
2023-05-19T02:35:02.374Z,3.50
2023-05-19T02:36:02.940Z,3.50
2023-05-19T02:37:02.736Z,3.50
2023-05-19T02:38:02.410Z,3.50
2023-05-19T02:39:02.314Z,3.30
2023-05-19T02:40:01.871Z,3.30
2023-05-19T02:41:02.320Z,3.30
2023-05-19T02:42:01.820Z,3.30
2023-05-19T02:43:01.907Z,3.30
2023-05-19T02:44:02.321Z,3.60
2023-05-19T02:45:01.984Z,3.60
2023-05-19T02:46:01.799Z,3.60
2023-05-19T02:47:01.745Z,3.60
2023-05-19T02:48:02.357Z,3.60
2023-05-19T02:49:02.077Z,3.60
2023-05-19T02:50:02.135Z,3.60
2023-05-19T02:51:02.164Z,3.60
2023-05-19T02:52:02.270Z,3.60
2023-05-19T02:53:02.147Z,3.60
2023-05-19T02:54:01.831Z,3.50
2023-05-19T02:55:02.802Z,3.50
2023-05-19T02:56:02.298Z,3.50
2023-05-19T02:57:02.692Z,3.50
2023-05-19T02:58:02.620Z,3.50
2023-05-19T02:59:02.565Z,3.60
2023-05-19T03:00:02.384Z,3.60
2023-05-19T03:01:02.409Z,3.60
2023-05-19T03:02:02.402Z,3.60
2023-05-19T03:03:02.292Z,3.60
2023-05-19T03:04:02.476Z,3.30
2023-05-19T03:05:02.461Z,3.30
2023-05-19T03:06:02.286Z,3.30
2023-05-19T03:07:02.829Z,3.30
2023-05-19T03:08:02.786Z,3.30
2023-05-19T03:09:02.542Z,3.30
2023-05-19T03:10:03.465Z,3.30
2023-05-19T03:11:03.083Z,3.30
2023-05-19T03:12:02.944Z,3.30
2023-05-19T03:13:02.833Z,3.30
2023-05-19T03:14:03.217Z,3.20
2023-05-19T03:15:02.797Z,3.20
2023-05-19T03:16:02.742Z,3.20
2023-05-19T03:17:02.682Z,3.20
2023-05-19T03:18:02.587Z,3.20
2023-05-19T03:19:02.865Z,3.20
2023-05-19T03:20:02.534Z,3.20
2023-05-19T03:21:02.471Z,3.20
2023-05-19T03:22:02.279Z,3.20
2023-05-19T03:23:02.490Z,3.20
2023-05-19T03:24:02.457Z,3.10
2023-05-19T03:25:03.114Z,3.10
2023-05-19T03:26:03.109Z,3.10
2023-05-19T03:27:02.877Z,3.10
2023-05-19T03:28:03.212Z,3.10
2023-05-19T03:29:03.029Z,3.10
2023-05-19T03:30:05.702Z,3.10
2023-05-19T03:31:03.121Z,3.10
2023-05-19T03:32:03.016Z,3.10
2023-05-19T03:33:03.368Z,3.10
2023-05-19T03:34:03.117Z,3.40
2023-05-19T03:35:02.716Z,3.40
2023-05-19T03:36:02.684Z,3.40
2023-05-19T03:37:03.025Z,3.40
2023-05-19T03:38:02.767Z,3.40
2023-05-19T03:39:02.334Z,3.30
2023-05-19T03:40:03.328Z,3.30
2023-05-19T03:41:02.892Z,3.30
2023-05-19T03:42:02.768Z,3.30
2023-05-19T03:43:03.400Z,3.30
2023-05-19T03:44:03.127Z,3.20
2023-05-19T03:45:02.923Z,3.20
2023-05-19T03:46:02.437Z,3.20
2023-05-19T03:47:02.500Z,3.20
2023-05-19T03:48:02.434Z,3.20
2023-05-19T03:49:02.442Z,3.00
2023-05-19T03:50:02.612Z,3.00
2023-05-19T03:51:03.138Z,3.00
2023-05-19T03:52:02.820Z,3.00
2023-05-19T03:53:03.180Z,3.00
2023-05-19T03:54:02.789Z,3.10
2023-05-19T03:55:03.422Z,3.10
2023-05-19T03:56:03.370Z,3.10
2023-05-19T03:57:03.397Z,3.10
2023-05-19T03:58:03.575Z,3.10
2023-05-19T03:59:02.940Z,3.10
2023-05-19T04:00:02.259Z,3.10
2023-05-19T04:01:02.439Z,3.10
2023-05-19T04:02:02.850Z,3.10
2023-05-19T04:03:02.581Z,3.10
2023-05-19T04:04:02.386Z,3.00
2023-05-19T04:05:02.655Z,3.00
2023-05-19T04:06:02.647Z,3.00
2023-05-19T04:07:03.045Z,3.00
2023-05-19T04:08:02.833Z,3.00
2023-05-19T04:09:03.027Z,3.30
2023-05-19T04:10:03.405Z,3.30
2023-05-19T04:11:03.116Z,3.30
2023-05-19T04:12:03.151Z,3.30
2023-05-19T04:13:03.060Z,3.30
2023-05-19T04:14:02.790Z,2.90
2023-05-19T04:15:02.862Z,2.90
2023-05-19T04:16:03.419Z,2.90
2023-05-19T04:17:03.082Z,2.90
2023-05-19T04:18:03.125Z,2.90
2023-05-19T04:19:03.573Z,3.10
2023-05-19T04:20:02.289Z,3.10
2023-05-19T04:21:02.637Z,3.10
2023-05-19T04:22:02.603Z,3.10
2023-05-19T04:23:02.746Z,3.10
2023-05-19T04:24:02.755Z,3.20
2023-05-19T04:25:02.845Z,3.20
2023-05-19T04:26:02.824Z,3.20
2023-05-19T04:27:02.843Z,3.20
2023-05-19T04:28:03.442Z,3.20
2023-05-19T04:29:03.388Z,3.30
2023-05-19T04:30:02.271Z,3.30
2023-05-19T04:31:02.352Z,3.30
2023-05-19T04:32:02.391Z,3.30
2023-05-19T04:33:02.263Z,3.30
2023-05-19T04:34:02.774Z,3.40
2023-05-19T04:35:02.925Z,3.40
2023-05-19T04:36:02.531Z,3.40
2023-05-19T04:37:02.784Z,3.40
2023-05-19T04:38:02.909Z,3.40
2023-05-19T04:39:02.862Z,3.40
2023-05-19T04:40:02.028Z,3.40
2023-05-19T04:41:02.111Z,3.40
2023-05-19T04:42:01.856Z,3.40
2023-05-19T04:43:01.905Z,3.40
2023-05-19T04:44:01.995Z,3.40
2023-05-19T04:45:01.957Z,3.40
2023-05-19T04:46:02.492Z,3.40
2023-05-19T04:47:02.343Z,3.40
2023-05-19T04:48:02.440Z,3.40
2023-05-19T04:49:02.220Z,3.70
2023-05-19T04:50:02.933Z,3.70
2023-05-19T04:51:02.699Z,3.70
2023-05-19T04:52:02.620Z,3.70
2023-05-19T04:53:02.664Z,3.70
2023-05-19T04:54:02.432Z,3.50
2023-05-19T04:55:02.183Z,3.50
2023-05-19T04:56:02.324Z,3.50
2023-05-19T04:57:02.644Z,3.50
2023-05-19T04:58:02.376Z,3.50
2023-05-19T04:59:02.524Z,3.60
2023-05-19T05:00:02.490Z,3.60
2023-05-19T05:01:02.842Z,3.60
2023-05-19T05:02:02.611Z,3.60
2023-05-19T05:03:02.661Z,3.60
2023-05-19T05:04:02.994Z,3.40
2023-05-19T05:05:02.307Z,3.40
2023-05-19T05:06:01.798Z,3.40
2023-05-19T05:07:01.809Z,3.40
2023-05-19T05:08:01.810Z,3.40
2023-05-19T05:09:01.828Z,3.50
2023-05-19T05:10:02.089Z,3.50
2023-05-19T05:11:01.814Z,3.50
2023-05-19T05:12:01.893Z,3.50
2023-05-19T05:13:01.969Z,3.50
2023-05-19T05:14:02.046Z,3.80
2023-05-19T05:15:02.126Z,3.80
2023-05-19T05:16:02.273Z,3.80
2023-05-19T05:17:02.361Z,3.80
2023-05-19T05:18:02.177Z,3.80
2023-05-19T05:19:02.181Z,3.90
2023-05-19T05:20:02.247Z,3.90
2023-05-19T05:21:02.294Z,3.90
2023-05-19T05:22:02.294Z,3.90
2023-05-19T05:23:02.292Z,3.90
2023-05-19T05:24:02.293Z,3.80
2023-05-19T05:25:02.713Z,3.80
2023-05-19T05:26:02.389Z,3.80
2023-05-19T05:27:02.362Z,3.80
2023-05-19T05:28:02.681Z,3.80
2023-05-19T05:29:02.418Z,4.40
2023-05-19T05:30:02.559Z,4.40
2023-05-19T05:31:02.364Z,4.40
2023-05-19T05:32:02.269Z,4.40
2023-05-19T05:33:02.706Z,4.40
2023-05-19T05:34:02.827Z,4.10
2023-05-19T05:35:02.647Z,4.10
2023-05-19T05:36:02.697Z,4.10
2023-05-19T05:37:02.372Z,4.10
2023-05-19T05:38:03.052Z,4.10
2023-05-19T05:39:03.008Z,3.60
2023-05-19T05:40:02.751Z,3.60
2023-05-19T05:41:02.779Z,3.60
2023-05-19T05:42:02.594Z,3.60
2023-05-19T05:43:02.552Z,3.60
2023-05-19T05:44:03.119Z,4.50
2023-05-19T05:45:01.998Z,4.50
2023-05-19T05:46:02.061Z,4.50
2023-05-19T05:47:02.370Z,4.50
2023-05-19T05:48:01.904Z,4.50
2023-05-19T05:49:01.822Z,4.00
2023-05-19T05:50:02.527Z,4.00
2023-05-19T05:51:02.559Z,4.00
2023-05-19T05:52:06.360Z,4.00
2023-05-19T05:53:02.942Z,4.00
2023-05-19T05:54:02.318Z,3.90
2023-05-19T05:55:02.043Z,3.90
2023-05-19T05:56:02.078Z,3.90
2023-05-19T05:57:02.198Z,3.90
2023-05-19T05:58:02.424Z,3.90
2023-05-19T05:59:02.195Z,4.10
2023-05-19T06:00:02.388Z,4.10
2023-05-19T06:01:01.937Z,4.10
2023-05-19T06:02:02.083Z,4.10
2023-05-19T06:03:02.490Z,4.10
2023-05-19T06:04:02.429Z,4.10
2023-05-19T06:05:03.623Z,4.10
2023-05-19T06:06:03.355Z,4.10
2023-05-19T06:07:03.760Z,4.10
2023-05-19T06:08:03.484Z,4.10
2023-05-19T06:09:03.606Z,4.10
2023-05-19T06:10:02.671Z,4.10
2023-05-19T06:11:02.497Z,4.10
2023-05-19T06:12:02.999Z,4.10
2023-05-19T06:13:02.434Z,4.10
2023-05-19T06:14:02.587Z,4.00
2023-05-19T06:15:02.567Z,4.00
2023-05-19T06:16:02.557Z,4.00
2023-05-19T06:17:03.004Z,4.00
2023-05-19T06:18:03.170Z,4.00
2023-05-19T06:19:03.055Z,3.80
2023-05-19T06:20:03.241Z,3.80
2023-05-19T06:21:02.831Z,3.80
2023-05-19T06:22:02.907Z,3.80
2023-05-19T06:23:03.109Z,3.80
2023-05-19T06:24:03.375Z,3.90
2023-05-19T06:25:03.518Z,3.90
2023-05-19T06:26:03.314Z,3.90
2023-05-19T06:27:03.421Z,3.90
2023-05-19T06:28:03.424Z,3.90
2023-05-19T06:29:03.626Z,3.80
2023-05-19T06:30:02.788Z,3.80
2023-05-19T06:31:02.964Z,3.80
2023-05-19T06:32:02.765Z,3.80
2023-05-19T06:33:02.976Z,3.80
2023-05-19T06:34:02.837Z,3.70
2023-05-19T06:35:02.935Z,3.70
2023-05-19T06:36:03.068Z,3.70
2023-05-19T06:37:03.062Z,3.70
2023-05-19T06:38:02.956Z,3.70
2023-05-19T06:39:02.940Z,3.60
2023-05-19T06:40:03.005Z,3.60
2023-05-19T06:41:02.659Z,3.60
2023-05-19T06:42:02.952Z,3.60
2023-05-19T06:43:02.932Z,3.60
2023-05-19T06:44:03.006Z,3.50
2023-05-19T06:45:02.568Z,3.50
2023-05-19T06:46:02.243Z,3.50
2023-05-19T06:47:02.413Z,3.50
2023-05-19T06:48:02.760Z,3.50
2023-05-19T06:49:02.429Z,3.40
2023-05-19T06:50:03.569Z,3.40
2023-05-19T06:51:03.105Z,3.40
2023-05-19T06:52:03.299Z,3.40
2023-05-19T06:53:03.386Z,3.40
2023-05-19T06:54:03.234Z,3.10
2023-05-19T06:55:02.621Z,3.10
2023-05-19T06:56:02.683Z,3.10
2023-05-19T06:57:02.995Z,3.10
2023-05-19T06:58:02.669Z,3.10
2023-05-19T06:59:02.781Z,3.00
2023-05-19T07:00:02.801Z,3.00
2023-05-19T07:01:03.048Z,3.00
2023-05-19T07:02:03.427Z,3.00
2023-05-19T07:03:03.048Z,3.00
2023-05-19T07:04:03.281Z,3.00
2023-05-19T07:05:03.026Z,3.00
2023-05-19T07:06:03.756Z,3.00
2023-05-19T07:07:02.958Z,3.00
2023-05-19T07:08:02.482Z,3.00
2023-05-19T07:09:02.611Z,2.90
2023-05-19T07:10:02.610Z,2.90
2023-05-19T07:11:02.489Z,2.90
2023-05-19T07:12:02.404Z,2.90
2023-05-19T07:13:02.448Z,2.90
2023-05-19T07:14:02.516Z,3.10
2023-05-19T07:15:02.320Z,3.10
2023-05-19T07:16:02.435Z,3.10
2023-05-19T07:17:02.692Z,3.10
2023-05-19T07:18:02.384Z,3.10
2023-05-19T07:19:02.340Z,3.10
2023-05-19T07:20:02.660Z,3.10
2023-05-19T07:21:02.751Z,3.10
2023-05-19T07:22:02.992Z,3.10
2023-05-19T07:23:02.729Z,3.10
2023-05-19T07:24:02.914Z,2.90
2023-05-19T07:25:01.931Z,2.90
2023-05-19T07:26:02.624Z,2.90
2023-05-19T07:27:02.229Z,2.90
2023-05-19T07:28:02.471Z,2.90
2023-05-19T07:29:02.225Z,2.90
2023-05-19T07:30:02.512Z,2.90
2023-05-19T07:31:02.737Z,2.90
2023-05-19T07:32:03.044Z,2.90
2023-05-19T07:33:02.591Z,2.90
2023-05-19T07:34:02.725Z,2.60
2023-05-19T07:35:02.435Z,2.60
2023-05-19T07:36:02.100Z,2.60
2023-05-19T07:37:02.066Z,2.60
2023-05-19T07:38:01.936Z,2.60
2023-05-19T07:39:02.576Z,2.70
2023-05-19T07:40:02.357Z,2.70
2023-05-19T07:41:02.683Z,2.70
2023-05-19T07:42:02.335Z,2.70
2023-05-19T07:43:02.441Z,2.70
2023-05-19T07:44:02.784Z,3.20
2023-05-19T07:45:02.094Z,3.20
2023-05-19T07:46:02.380Z,3.20
2023-05-19T07:47:02.161Z,3.20
2023-05-19T07:48:01.750Z,3.20
2023-05-19T07:49:01.728Z,2.50
2023-05-19T07:50:02.247Z,2.50
2023-05-19T07:51:02.372Z,2.50
2023-05-19T07:52:02.293Z,2.50
2023-05-19T07:53:01.898Z,2.50
2023-05-19T07:54:02.386Z,2.80
2023-05-19T07:55:02.993Z,2.80
2023-05-19T07:56:02.936Z,2.80
2023-05-19T07:57:02.675Z,2.80
2023-05-19T07:58:02.879Z,2.80
2023-05-19T07:59:02.932Z,2.90
2023-05-19T08:00:02.722Z,2.90
2023-05-19T08:01:02.921Z,2.90
2023-05-19T08:02:02.777Z,2.90
2023-05-19T08:03:03.157Z,2.90
2023-05-19T08:04:03.123Z,2.60
2023-05-19T08:05:02.174Z,2.60
2023-05-19T08:06:02.467Z,2.60
2023-05-19T08:07:02.534Z,2.60
2023-05-19T08:08:02.464Z,2.60
2023-05-19T08:09:02.395Z,2.90
2023-05-19T08:10:03.053Z,2.90
2023-05-19T08:11:03.010Z,2.90
2023-05-19T08:12:02.693Z,2.90
2023-05-19T08:13:02.659Z,2.90
2023-05-19T08:14:02.757Z,2.60
2023-05-19T08:15:02.206Z,2.60
2023-05-19T08:16:02.676Z,2.60
2023-05-19T08:17:02.579Z,2.60
2023-05-19T08:18:02.541Z,2.60
2023-05-19T08:19:02.203Z,2.90
2023-05-19T08:20:01.857Z,2.90
2023-05-19T08:21:01.715Z,2.90
2023-05-19T08:22:01.834Z,2.90
2023-05-19T08:23:01.892Z,2.90
2023-05-19T08:24:02.199Z,2.20
2023-05-19T08:25:01.878Z,2.20
2023-05-19T08:26:02.230Z,2.20
2023-05-19T08:27:02.307Z,2.20
2023-05-19T08:28:02.101Z,2.20
2023-05-19T08:29:01.929Z,2.30
2023-05-19T08:30:02.785Z,2.30
2023-05-19T08:31:02.719Z,2.30
2023-05-19T08:32:02.514Z,2.30
2023-05-19T08:33:02.776Z,2.30
2023-05-19T08:34:03.096Z,2.40
2023-05-19T08:35:02.025Z,2.40
2023-05-19T08:36:01.867Z,2.40
2023-05-19T08:37:02.123Z,2.40
2023-05-19T08:38:01.726Z,2.40
2023-05-19T08:39:02.066Z,2.30
2023-05-19T08:40:02.493Z,2.30
2023-05-19T08:41:02.775Z,2.30
2023-05-19T08:42:02.351Z,2.30
2023-05-19T08:43:02.726Z,2.30
2023-05-19T08:44:02.729Z,2.50
2023-05-19T08:45:01.901Z,2.50
2023-05-19T08:46:01.718Z,2.50
2023-05-19T08:47:02.403Z,2.50
2023-05-19T08:48:02.341Z,2.50
2023-05-19T08:49:01.975Z,2.50
2023-05-19T08:50:02.108Z,2.50
2023-05-19T08:51:01.967Z,2.50
2023-05-19T08:52:02.068Z,2.50
2023-05-19T08:53:02.354Z,2.50
2023-05-19T08:54:02.463Z,2.40
2023-05-19T08:55:02.252Z,2.40
2023-05-19T08:56:01.998Z,2.40
2023-05-19T08:57:02.155Z,2.40
2023-05-19T08:58:01.911Z,2.40
2023-05-19T08:59:02.148Z,2.30
2023-05-19T09:00:02.307Z,2.30
2023-05-19T09:01:01.974Z,2.30
2023-05-19T09:02:01.896Z,2.30
2023-05-19T09:04:02.386Z,2.50
2023-05-19T09:05:03.246Z,2.50
2023-05-19T09:06:03.372Z,2.50
2023-05-19T09:07:03.635Z,2.50
2023-05-19T09:08:03.423Z,2.50
2023-05-19T09:09:03.548Z,2.90
2023-05-19T09:10:02.700Z,2.90
2023-05-19T09:11:02.230Z,2.90
2023-05-19T09:12:02.406Z,2.90
2023-05-19T09:13:02.586Z,2.90
2023-05-19T09:14:02.605Z,2.50
2023-05-19T09:15:02.720Z,2.50
2023-05-19T09:16:02.424Z,2.50
2023-05-19T09:17:02.728Z,2.50
2023-05-19T09:18:02.931Z,2.50
2023-05-19T09:19:02.994Z,2.50
2023-05-19T09:20:02.860Z,2.50
2023-05-19T09:21:03.126Z,2.50
2023-05-19T09:22:02.657Z,2.50
2023-05-19T09:23:02.900Z,2.50
2023-05-19T09:24:02.728Z,2.50
2023-05-19T09:25:02.872Z,2.50
2023-05-19T09:26:02.713Z,2.50
2023-05-19T09:27:03.036Z,2.50
2023-05-19T09:28:02.529Z,2.50
2023-05-19T09:29:02.731Z,2.50
2023-05-19T09:30:03.439Z,2.50
2023-05-19T09:31:03.145Z,2.50
2023-05-19T09:32:03.624Z,2.50
2023-05-19T09:33:03.649Z,2.50
2023-05-19T09:34:03.474Z,2.20
2023-05-19T09:35:03.084Z,2.20
2023-05-19T09:36:02.920Z,2.20
2023-05-19T09:37:02.977Z,2.20
2023-05-19T09:38:03.259Z,2.20
2023-05-19T09:39:03.040Z,2.50
2023-05-19T09:40:02.917Z,2.50
2023-05-19T09:41:02.951Z,2.50
2023-05-19T09:42:03.220Z,2.50
2023-05-19T09:43:03.452Z,2.50
2023-05-19T09:44:03.165Z,2.30
2023-05-19T09:45:03.465Z,2.30
2023-05-19T09:46:03.493Z,2.30
2023-05-19T09:47:03.622Z,2.30
2023-05-19T09:48:03.470Z,2.30
2023-05-19T09:49:03.152Z,2.40
2023-05-19T09:50:03.692Z,2.40
2023-05-19T09:51:03.565Z,2.40
2023-05-19T09:52:03.242Z,2.40
2023-05-19T09:53:03.385Z,2.40
2023-05-19T09:54:03.543Z,2.40
2023-05-19T09:55:02.719Z,2.40
2023-05-19T09:56:02.612Z,2.40
2023-05-19T09:57:02.499Z,2.40
2023-05-19T09:58:02.770Z,2.40
2023-05-19T09:59:02.975Z,2.40
2023-05-19T10:00:03.074Z,2.40
2023-05-19T10:01:02.662Z,2.40
2023-05-19T10:02:03.117Z,2.40
2023-05-19T10:03:03.261Z,2.40
2023-05-19T10:04:03.896Z,2.10
2023-05-19T10:05:02.566Z,2.10
2023-05-19T10:06:02.482Z,2.10
2023-05-19T10:07:02.047Z,2.10
2023-05-19T10:08:02.259Z,2.10
2023-05-19T10:09:02.439Z,2.40
2023-05-19T10:10:02.707Z,2.40
2023-05-19T10:11:02.740Z,2.40
2023-05-19T10:12:02.425Z,2.40
2023-05-19T10:13:02.699Z,2.40
2023-05-19T10:14:02.232Z,2.20
2023-05-19T10:15:02.788Z,2.20
2023-05-19T10:16:03.078Z,2.20
2023-05-19T10:17:02.633Z,2.20
2023-05-19T10:18:02.703Z,2.20
2023-05-19T10:19:02.789Z,2.50
2023-05-19T10:20:02.675Z,2.50
2023-05-19T10:21:02.970Z,2.50
2023-05-19T10:22:03.239Z,2.50
2023-05-19T10:23:03.068Z,2.50
2023-05-19T10:24:03.286Z,2.10
2023-05-19T10:25:02.767Z,2.10
2023-05-19T10:26:02.748Z,2.10
2023-05-19T10:27:02.651Z,2.10
2023-05-19T10:28:02.421Z,2.10
2023-05-19T10:29:02.847Z,2.40
2023-05-19T10:30:03.394Z,2.40
2023-05-19T10:31:03.186Z,2.40
2023-05-19T10:32:02.801Z,2.40
2023-05-19T10:33:03.202Z,2.40
2023-05-19T10:34:03.368Z,2.30
2023-05-19T10:35:03.389Z,2.30
2023-05-19T10:36:03.300Z,2.30
2023-05-19T10:37:03.394Z,2.30
2023-05-19T10:38:03.289Z,2.30
2023-05-19T10:39:03.196Z,2.30
2023-05-19T10:40:03.481Z,2.30
2023-05-19T10:41:03.279Z,2.30
2023-05-19T10:42:03.251Z,2.30
2023-05-19T10:43:03.362Z,2.30
2023-05-19T10:44:02.940Z,2.20
2023-05-19T10:45:02.450Z,2.20
2023-05-19T10:46:02.191Z,2.20
2023-05-19T10:47:02.752Z,2.20
2023-05-19T10:48:02.463Z,2.20
2023-05-19T10:49:02.203Z,2.40
2023-05-19T10:50:02.687Z,2.40
2023-05-19T10:51:02.791Z,2.40
2023-05-19T10:52:02.354Z,2.40
2023-05-19T10:53:02.529Z,2.40
2023-05-19T10:54:02.426Z,2.30
2023-05-19T10:55:03.234Z,2.30
2023-05-19T10:56:03.048Z,2.30
2023-05-19T10:57:03.378Z,2.30
2023-05-19T10:58:03.362Z,2.30
2023-05-19T10:59:03.198Z,2.10
2023-05-19T11:00:02.796Z,2.10
2023-05-19T11:01:02.885Z,2.10
2023-05-19T11:02:02.903Z,2.10
2023-05-19T11:03:02.294Z,2.10
2023-05-19T11:04:02.679Z,2.20
2023-05-19T11:05:02.679Z,2.20
2023-05-19T11:06:02.976Z,2.20
2023-05-19T11:07:02.741Z,2.20
2023-05-19T11:08:03.030Z,2.20
2023-05-19T11:09:02.940Z,2.30
2023-05-19T11:10:01.938Z,2.30
2023-05-19T11:11:02.129Z,2.30
2023-05-19T11:12:02.165Z,2.30
2023-05-19T11:13:02.287Z,2.30
2023-05-19T11:14:01.964Z,2.30
2023-05-19T11:15:02.645Z,2.30
2023-05-19T11:16:02.851Z,2.30
2023-05-19T11:17:03.075Z,2.30
2023-05-19T11:18:03.196Z,2.30
2023-05-19T11:19:02.858Z,2.10
2023-05-19T11:20:02.323Z,2.10
2023-05-19T11:21:02.487Z,2.10
2023-05-19T11:22:02.744Z,2.10
2023-05-19T11:23:02.566Z,2.10
2023-05-19T11:24:02.837Z,2.30
2023-05-19T11:25:01.768Z,2.30
2023-05-19T11:26:02.003Z,2.30
2023-05-19T11:27:01.823Z,2.30
2023-05-19T11:28:02.340Z,2.30
2023-05-19T11:29:02.067Z,2.40
2023-05-19T11:30:02.337Z,2.40
2023-05-19T11:31:02.602Z,2.40
2023-05-19T11:32:02.708Z,2.40
2023-05-19T11:33:02.192Z,2.40
2023-05-19T11:34:02.631Z,2.60
2023-05-19T11:35:02.365Z,2.60
2023-05-19T11:36:02.645Z,2.60
2023-05-19T11:37:02.385Z,2.60
2023-05-19T11:38:02.792Z,2.60
2023-05-19T11:39:02.464Z,2.20
2023-05-19T11:40:02.714Z,2.20
2023-05-19T11:41:02.971Z,2.20
2023-05-19T11:42:03.172Z,2.20
2023-05-19T11:43:03.127Z,2.20
2023-05-19T11:44:03.071Z,2.40
2023-05-19T11:45:03.411Z,2.40
2023-05-19T11:46:03.247Z,2.40
2023-05-19T11:47:03.305Z,2.40
2023-05-19T11:48:03.559Z,2.40
2023-05-19T11:49:02.982Z,2.60
2023-05-19T11:50:02.512Z,2.60
2023-05-19T11:51:02.786Z,2.60
2023-05-19T11:52:02.593Z,2.60
2023-05-19T11:53:02.603Z,2.60
2023-05-19T11:54:02.286Z,2.40
2023-05-19T11:55:02.435Z,2.40
2023-05-19T11:56:02.594Z,2.40
2023-05-19T11:57:02.291Z,2.40
2023-05-19T11:58:04.606Z,2.40
2023-05-19T11:59:02.711Z,2.20
2023-05-19T12:00:03.101Z,2.20
2023-05-19T12:01:03.060Z,2.20
2023-05-19T12:02:03.370Z,2.20
2023-05-19T12:03:02.981Z,2.20
2023-05-19T12:04:03.133Z,2.30
2023-05-19T12:05:02.661Z,2.30
2023-05-19T12:06:02.861Z,2.30
2023-05-19T12:07:02.560Z,2.30
2023-05-19T12:08:02.806Z,2.30
2023-05-19T12:09:02.689Z,2.30
2023-05-19T12:10:03.158Z,2.30
2023-05-19T12:11:03.279Z,2.30
2023-05-19T12:12:03.248Z,2.30
2023-05-19T12:13:03.261Z,2.30
2023-05-19T12:14:03.236Z,2.40
2023-05-19T12:15:03.002Z,2.40
2023-05-19T12:16:02.943Z,2.40
2023-05-19T12:17:03.318Z,2.40
2023-05-19T12:18:03.144Z,2.40
2023-05-19T12:19:03.039Z,2.20
2023-05-19T12:20:02.654Z,2.20
2023-05-19T12:21:02.852Z,2.20
2023-05-19T12:22:04.056Z,2.20
2023-05-19T12:23:02.681Z,2.20
2023-05-19T12:24:02.550Z,2.20
2023-05-19T12:25:03.264Z,2.20
2023-05-19T12:26:03.507Z,2.20
2023-05-19T12:27:03.091Z,2.20
2023-05-19T12:28:03.916Z,2.20
2023-05-19T12:29:03.216Z,2.30
2023-05-19T12:30:02.519Z,2.30
2023-05-19T12:31:02.612Z,2.30
2023-05-19T12:32:02.630Z,2.30
2023-05-19T12:33:02.811Z,2.30
2023-05-19T12:34:02.304Z,2.30
2023-05-19T12:35:02.556Z,2.30
2023-05-19T12:36:02.822Z,2.30
2023-05-19T12:37:02.760Z,2.30
2023-05-19T12:38:02.596Z,2.30
2023-05-19T12:39:02.218Z,2.00
2023-05-19T12:40:03.181Z,2.00
2023-05-19T12:41:03.367Z,2.00
2023-05-19T12:42:03.299Z,2.00
2023-05-19T12:43:03.465Z,2.00
2023-05-19T12:44:02.995Z,2.30
2023-05-19T12:45:03.314Z,2.30
2023-05-19T12:46:02.798Z,2.30
2023-05-19T12:47:02.999Z,2.30
2023-05-19T12:48:03.102Z,2.30
2023-05-19T12:49:02.776Z,2.40
2023-05-19T12:50:03.360Z,2.40
2023-05-19T12:51:03.106Z,2.40
2023-05-19T12:52:06.122Z,2.40
2023-05-19T12:53:03.335Z,2.40
2023-05-19T12:54:03.089Z,2.10
2023-05-19T12:55:03.133Z,2.10
2023-05-19T12:56:02.747Z,2.10
2023-05-19T12:57:02.886Z,2.10
2023-05-19T12:58:02.692Z,2.10
2023-05-19T12:59:02.624Z,2.10
2023-05-19T13:00:03.484Z,2.10
2023-05-19T13:01:03.066Z,2.10
2023-05-19T13:02:03.627Z,2.10
2023-05-19T13:03:03.209Z,2.10
2023-05-19T13:04:06.037Z,2.20
2023-05-19T13:05:03.653Z,2.20
2023-05-19T13:06:03.863Z,2.20
2023-05-19T13:07:03.190Z,2.20
2023-05-19T13:08:03.368Z,2.20
2023-05-19T13:09:03.376Z,2.20
2023-05-19T13:10:03.725Z,2.20
2023-05-19T13:11:03.277Z,2.20
2023-05-19T13:12:03.721Z,2.20
2023-05-19T13:13:03.781Z,2.20
2023-05-19T13:14:03.636Z,2.40
2023-05-19T13:15:03.806Z,2.40
2023-05-19T13:16:03.674Z,2.40
2023-05-19T13:17:03.765Z,2.40
2023-05-19T13:18:03.765Z,2.40
2023-05-19T13:19:03.480Z,2.20